RRR4255 LBSF-LTFM
Flight info
| Callsign | RRR4255 |
|---|---|
| Flight time | N/A |
| Altitude | 31000 |
| Route | RUMEN N739 PDV P127 AYTEK |
| Aircraft | A400/H-SDE2E3FGHIJ4J5M1RWXYZ/L4T |
Departure
| Time | 2026-05-07 14:49 |
|---|---|
| Airport | Sofia Airport (LBSF) |
Arrival
| Time | N/A |
|---|---|
| Airport | İstanbul Airport (LTFM) |
| Time | Latitude | Longitude | Altitude | Speed | Heading |
|---|---|---|---|---|---|
| 2026-05-07 14:48 | 42.49746 | 23.71577 | 22679 ft | 410 kts | 120° |
| 2026-05-07 14:49 | 42.48506 | 23.75086 | 23161 ft | 415 kts | 115° |
| 2026-05-07 14:49 | 42.47365 | 23.78692 | 23659 ft | 418 kts | 114° |
| 2026-05-07 14:49 | 42.46229 | 23.82329 | 24071 ft | 421 kts | 115° |
| 2026-05-07 14:49 | 42.45079 | 23.85986 | 24442 ft | 423 kts | 115° |
| 2026-05-07 14:50 | 42.43915 | 23.89661 | 24792 ft | 426 kts | 115° |
| 2026-05-07 14:50 | 42.42740 | 23.93350 | 25157 ft | 428 kts | 115° |
| 2026-05-07 14:50 | 42.41554 | 23.97062 | 25477 ft | 431 kts | 115° |
| 2026-05-07 14:50 | 42.40355 | 24.00801 | 25775 ft | 434 kts | 115° |
| 2026-05-07 14:51 | 42.39149 | 24.04558 | 26083 ft | 437 kts | 116° |
| 2026-05-07 14:51 | 42.37934 | 24.08335 | 26403 ft | 439 kts | 115° |
| 2026-05-07 14:51 | 42.36710 | 24.12134 | 26692 ft | 441 kts | 116° |
| 2026-05-07 14:51 | 42.35481 | 24.15943 | 26960 ft | 443 kts | 116° |
| 2026-05-07 14:52 | 42.34661 | 24.18480 | 27182 ft | 444 kts | 116° |
| 2026-05-07 14:52 | 42.33009 | 24.23588 | 27652 ft | 443 kts | 116° |
| 2026-05-07 14:52 | 42.31775 | 24.27396 | 28009 ft | 443 kts | 116° |
| 2026-05-07 14:52 | 42.30943 | 24.29911 | 28264 ft | 442 kts | 118° |
| 2026-05-07 14:53 | 42.29523 | 24.33577 | 28618 ft | 440 kts | 122° |
| 2026-05-07 14:53 | 42.27478 | 24.38364 | 29153 ft | 439 kts | 123° |
| 2026-05-07 14:53 | 42.25924 | 24.41848 | 29488 ft | 439 kts | 123° |
| 2026-05-07 14:53 | 42.24333 | 24.45370 | 29859 ft | 439 kts | 124° |
| 2026-05-07 14:54 | 42.22740 | 24.48889 | 30247 ft | 439 kts | 124° |
| 2026-05-07 14:54 | 42.21153 | 24.52407 | 30604 ft | 438 kts | 123° |
| 2026-05-07 14:54 | 42.19579 | 24.55909 | 30949 ft | 435 kts | 123° |
| 2026-05-07 14:54 | 42.18013 | 24.59402 | 31113 ft | 436 kts | 123° |
| 2026-05-07 14:55 | 42.14881 | 24.66398 | 31052 ft | 435 kts | 123° |
| 2026-05-07 14:55 | 42.11750 | 24.73384 | 31049 ft | 435 kts | 123° |
| 2026-05-07 14:56 | 42.08615 | 24.80360 | 31047 ft | 435 kts | 123° |
| 2026-05-07 14:56 | 42.07083 | 24.83874 | 31046 ft | 436 kts | 120° |
| 2026-05-07 14:57 | 42.05269 | 24.90208 | 31049 ft | 439 kts | 105° |
| 2026-05-07 14:57 | 42.04672 | 24.94242 | 31049 ft | 440 kts | 101° |
| 2026-05-07 14:57 | 42.04051 | 24.99633 | 31048 ft | 440 kts | 99° |
| 2026-05-07 14:58 | 42.03644 | 25.03717 | 31045 ft | 440 kts | 98° |
| 2026-05-07 14:58 | 42.02065 | 25.20031 | 31047 ft | 440 kts | 98° |
| 2026-05-07 14:59 | 42.01375 | 25.26814 | 31039 ft | 440 kts | 98° |
| 2026-05-07 14:59 | 42.00532 | 25.34955 | 31041 ft | 439 kts | 98° |
| 2026-05-07 15:00 | 41.99966 | 25.40387 | 31037 ft | 438 kts | 98° |
| 2026-05-07 15:00 | 41.98431 | 25.49651 | 31041 ft | 437 kts | 105° |